Time;durP1;ratioP1;P1;durP2;ratioP2;P2;SDS_P1;SDS_P2;PMS_P1;PMS_P2;Temp;Humidity;BMP_temperature;BMP_pressure;BME280_temperature;BME280_humidity;BME280_pressure;Samples;Min_cycle;Max_cycle;Signal;HPM_P1;HPM_P2
2023/05/30 00:01:19;;;;;;;9.03;2.37;;;14.40;1.00;;;;;;5096637;28;20457;-68
2023/05/30 00:03:46;;;;;;;4.77;2.17;;;14.40;1.00;;;;;;5096746;28;20461;-68
2023/05/30 00:06:15;;;;;;;4.00;2.10;;;14.30;1.00;;;;;;5096689;28;20459;-67
2023/05/30 00:08:43;;;;;;;6.93;2.60;;;14.30;1.00;;;;;;5096748;28;20461;-68
2023/05/30 00:11:10;;;;;;;5.00;2.37;;;14.30;1.00;;;;;;5096711;28;20481;-68
2023/05/30 00:13:37;;;;;;;4.67;2.50;;;14.30;1.00;;;;;;5096885;28;20453;-68
2023/05/30 00:16:04;;;;;;;4.97;2.20;;;14.20;1.00;;;;;;5096502;28;20459;-67
2023/05/30 00:18:34;;;;;;;3.60;2.07;;;14.20;1.00;;;;;;5096848;28;20453;-67
2023/05/30 00:21:03;;;;;;;5.37;1.87;;;14.20;1.00;;;;;;5096761;28;20473;-68
2023/05/30 00:23:32;;;;;;;4.47;2.17;;;14.20;1.00;;;;;;5096795;28;20544;-67
2023/05/30 00:25:59;;;;;;;3.93;1.70;;;14.20;1.00;;;;;;5096505;28;20470;-67
2023/05/30 00:28:26;;;;;;;4.70;1.97;;;14.20;1.00;;;;;;5096693;28;20922;-67
2023/05/30 00:30:53;;;;;;;5.47;2.03;;;14.20;1.00;;;;;;5096576;28;20481;-67
2023/05/30 00:33:21;;;;;;;3.97;1.70;;;14.20;99.90;;;;;;5096479;28;20783;-67
2023/05/30 00:35:48;;;;;;;2.57;2.10;;;14.20;99.90;;;;;;5095986;28;20809;-67
2023/05/30 00:38:15;;;;;;;3.70;1.83;;;14.20;1.00;;;;;;5095762;28;20481;-67
2023/05/30 00:40:44;;;;;;;3.97;2.17;;;14.30;1.00;;;;;;5096200;28;20461;-67
2023/05/30 00:43:10;;;;;;;3.00;2.40;;;14.30;13.10;;;;;;5096344;28;20457;-67
2023/05/30 00:45:37;;;;;;;3.00;1.93;;;14.30;1.00;;;;;;5096107;28;20887;-67
2023/05/30 00:48:06;;;;;;;3.93;2.07;;;14.30;99.90;;;;;;5096255;28;20531;-67
2023/05/30 00:50:34;;;;;;;3.40;2.07;;;14.30;99.90;;;;;;5096026;28;20807;-67
2023/05/30 00:53:01;;;;;;;3.53;1.83;;;14.20;99.90;;;;;;5096623;28;20713;-67
2023/05/30 00:55:28;;;;;;;6.57;2.20;;;14.20;99.90;;;;;;5096187;28;20453;-67
2023/05/30 00:57:57;;;;;;;6.10;2.07;;;14.10;99.90;;;;;;5096049;28;20454;-67
2023/05/30 01:00:26;;;;;;;7.43;2.50;;;14.10;1.00;;;;;;5095883;28;20479;-67
2023/05/30 01:02:59;;;;;;;6.07;2.20;;;14.10;1.00;;;;;;5095840;28;20461;-67
2023/05/30 01:05:26;;;;;;;3.33;1.73;;;14.00;1.00;;;;;;5096001;28;20461;-67
2023/05/30 01:07:53;;;;;;;7.83;2.10;;;14.00;1.00;;;;;;5095868;28;20557;-67
2023/05/30 01:10:21;;;;;;;6.80;2.60;;;14.00;1.00;;;;;;5096173;28;20485;-67
2023/05/30 01:13:01;;;;;;;6.33;2.50;;;13.90;20.40;;;;;;5095924;28;20779;-67
2023/05/30 01:15:31;;;;;;;5.37;2.20;;;13.90;71.70;;;;;;5096375;28;20554;-67
2023/05/30 01:18:04;;;;;;;5.10;2.43;;;13.90;72.60;;;;;;5095973;28;20482;-68
2023/05/30 01:20:37;;;;;;;3.60;1.90;;;13.90;72.90;;;;;;5095659;28;20520;-67
2023/05/30 01:23:24;;;;;;;3.13;1.97;;;13.80;73.70;;;;;;5095998;28;20445;-67
2023/05/30 01:26:00;;;;;;;4.70;1.90;;;13.80;75.70;;;;;;5095073;28;20442;-67
2023/05/30 01:28:33;;;;;;;4.90;2.60;;;13.70;75.90;;;;;;5095513;28;20779;-67
2023/05/30 01:31:00;;;;;;;5.43;2.40;;;13.70;77.50;;;;;;5095179;28;20499;-67
2023/05/30 01:33:28;;;;;;;4.30;1.93;;;13.70;78.50;;;;;;5095452;28;20793;-67
2023/05/30 01:35:55;;;;;;;5.60;1.97;;;13.60;80.90;;;;;;5094990;28;20459;-67
2023/05/30 01:38:22;;;;;;;5.03;2.13;;;13.60;83.20;;;;;;5094483;28;20580;-67
2023/05/30 01:40:51;;;;;;;3.90;2.23;;;13.50;84.80;;;;;;5095146;28;20449;-67
2023/05/30 01:43:36;;;;;;;3.37;2.00;;;13.50;86.60;;;;;;5095208;28;20465;-67
2023/05/30 01:46:11;;;;;;;3.33;2.00;;;13.50;88.50;;;;;;5095190;28;20442;-68
2023/05/30 01:48:47;;;;;;;3.87;2.00;;;13.50;90.10;;;;;;5095204;28;20919;-67
2023/05/30 01:51:20;;;;;;;8.00;2.57;;;13.40;90.60;;;;;;5094738;28;20461;-67
2023/05/30 01:53:50;;;;;;;4.00;2.33;;;13.40;91.90;;;;;;5095009;28;20438;-67
2023/05/30 01:56:19;;;;;;;4.70;2.40;;;13.40;92.70;;;;;;5095014;28;20797;-67
2023/05/30 01:58:50;;;;;;;3.90;2.03;;;13.30;93.40;;;;;;5094911;28;20453;-67
2023/05/30 02:01:18;;;;;;;7.33;2.30;;;13.30;94.50;;;;;;5094647;28;20437;-67
2023/05/30 02:03:47;;;;;;;5.17;1.90;;;13.30;95.40;;;;;;5094607;28;20777;-67
2023/05/30 02:06:14;;;;;;;4.47;2.70;;;13.20;96.40;;;;;;5094501;28;20472;-67
2023/05/30 02:08:41;;;;;;;4.87;2.03;;;13.20;97.50;;;;;;5094608;28;20487;-67
2023/05/30 02:11:07;;;;;;;8.10;2.13;;;13.20;98.40;;;;;;5094279;28;20969;-67
2023/05/30 02:13:34;;;;;;;3.80;2.13;;;13.20;99.40;;;;;;5094718;28;20906;-67
2023/05/30 02:16:02;;;;;;;9.63;2.87;;;13.10;99.90;;;;;;5094609;28;20467;-67
2023/05/30 02:18:29;;;;;;;5.57;2.10;;;13.10;99.90;;;;;;5094407;28;20463;-67
2023/05/30 02:20:56;;;;;;;5.87;2.00;;;13.10;99.90;;;;;;5094383;28;20937;-67
2023/05/30 02:23:23;;;;;;;4.37;2.10;;;13.10;99.90;;;;;;5094719;28;20457;-67
2023/05/30 02:25:50;;;;;;;4.53;1.90;;;13.10;99.90;;;;;;5094573;28;20453;-67
2023/05/30 02:28:17;;;;;;;4.53;1.90;;;13.00;99.90;;;;;;5094473;28;20540;-67
2023/05/30 02:30:44;;;;;;;4.27;2.67;;;13.00;99.90;;;;;;5094455;28;20863;-67
2023/05/30 02:33:12;;;;;;;3.10;2.00;;;13.00;99.90;;;;;;5094208;28;20467;-67
2023/05/30 02:35:39;;;;;;;4.73;2.60;;;13.00;99.90;;;;;;5094584;28;20453;-67
2023/05/30 02:38:06;;;;;;;4.83;2.53;;;13.00;99.90;;;;;;5094082;28;20546;-68
2023/05/30 02:40:33;;;;;;;3.30;2.20;;;13.00;99.90;;;;;;5094777;28;20461;-68
2023/05/30 02:43:00;;;;;;;3.47;2.50;;;13.00;99.90;;;;;;5093980;28;20457;-68
2023/05/30 02:45:26;;;;;;;4.60;2.00;;;13.00;99.90;;;;;;5094400;28;20533;-68
2023/05/30 02:47:56;;;;;;;5.97;2.77;;;12.90;99.90;;;;;;5094239;28;20766;-68
2023/05/30 02:50:24;;;;;;;5.47;2.43;;;12.90;99.90;;;;;;5096568;28;20487;-68
2023/05/30 02:52:51;;;;;;;6.40;2.77;;;12.90;99.90;;;;;;5098211;28;20480;-67
2023/05/30 02:55:18;;;;;;;5.27;3.43;;;12.90;99.90;;;;;;5098051;28;20898;-68
2023/05/30 02:57:45;;;;;;;8.17;2.70;;;12.80;99.90;;;;;;5098608;28;20463;-68
2023/05/30 03:00:13;;;;;;;4.57;2.33;;;12.80;99.90;;;;;;5098287;28;20449;-68
2023/05/30 03:02:41;;;;;;;6.03;2.40;;;12.80;99.90;;;;;;5098324;28;20460;-67
2023/05/30 03:05:09;;;;;;;7.10;2.80;;;12.70;99.90;;;;;;5098010;28;20918;-68
2023/05/30 03:07:37;;;;;;;5.97;2.60;;;12.70;99.90;;;;;;5098123;28;20453;-68
2023/05/30 03:10:04;;;;;;;5.07;2.47;;;12.70;99.90;;;;;;5097436;28;20457;-68
2023/05/30 03:12:31;;;;;;;5.53;2.60;;;12.70;99.90;;;;;;5097848;28;20453;-68
2023/05/30 03:14:58;;;;;;;8.00;2.43;;;12.70;99.90;;;;;;5097589;28;20467;-68
2023/05/30 03:17:25;;;;;;;8.00;2.97;;;12.70;99.90;;;;;;5098086;28;20453;-68
2023/05/30 03:19:52;;;;;;;9.30;2.93;;;12.70;99.90;;;;;;5097717;28;20454;-68
2023/05/30 03:22:19;;;;;;;6.50;3.13;;;12.70;99.90;;;;;;5097729;28;20536;-68
2023/05/30 03:24:47;;;;;;;6.50;2.73;;;12.70;99.90;;;;;;5097735;28;20463;-68
2023/05/30 03:27:14;;;;;;;5.83;2.80;;;12.70;99.90;;;;;;5097311;28;20467;-68
2023/05/30 03:29:41;;;;;;;6.27;2.80;;;12.60;99.90;;;;;;5097577;28;20457;-68
2023/05/30 03:32:09;;;;;;;5.50;2.80;;;12.50;99.90;;;;;;5097614;28;20484;-68
2023/05/30 03:34:36;;;;;;;6.47;2.50;;;12.40;99.90;;;;;;5097884;28;20453;-68
2023/05/30 03:37:03;;;;;;;5.67;2.40;;;12.50;99.90;;;;;;5097172;28;20496;-67
2023/05/30 03:39:30;;;;;;;5.70;2.70;;;12.40;99.90;;;;;;5097245;28;21013;-67
2023/05/30 03:41:58;;;;;;;6.70;3.00;;;12.50;99.90;;;;;;5097092;28;20449;-68
2023/05/30 03:44:25;;;;;;;3.90;2.73;;;12.40;99.90;;;;;;5097083;28;20933;-68
2023/05/30 03:46:52;;;;;;;3.93;2.47;;;12.40;99.90;;;;;;5097085;28;20453;-68
2023/05/30 03:49:19;;;;;;;7.63;3.10;;;12.30;99.90;;;;;;5097203;28;20454;-67
2023/05/30 03:51:46;;;;;;;8.77;2.43;;;12.30;99.90;;;;;;5096751;28;20481;-68
2023/05/30 03:54:12;;;;;;;6.10;2.20;;;12.30;99.90;;;;;;5097140;28;20559;-68
2023/05/30 03:56:39;;;;;;;5.10;2.37;;;12.30;99.90;;;;;;5097242;28;20744;-67
2023/05/30 03:59:08;;;;;;;7.30;2.40;;;12.30;99.90;;;;;;5097021;28;20550;-68
2023/05/30 04:01:35;;;;;;;5.83;2.50;;;12.30;99.90;;;;;;5096150;28;20454;-68
2023/05/30 04:04:02;;;;;;;6.27;2.60;;;12.30;99.90;;;;;;5096977;28;20468;-68
2023/05/30 04:06:29;;;;;;;5.10;2.70;;;12.20;99.90;;;;;;5096591;28;20458;-68
2023/05/30 04:08:56;;;;;;;6.87;2.97;;;12.20;99.90;;;;;;5096987;28;20496;-67
2023/05/30 04:11:23;;;;;;;6.37;2.90;;;12.10;99.90;;;;;;5096961;28;20578;-68
2023/05/30 04:13:50;;;;;;;3.53;2.53;;;12.10;99.90;;;;;;5096617;28;20459;-68
2023/05/30 04:16:18;;;;;;;8.27;3.03;;;12.20;99.90;;;;;;5096704;28;20453;-68
2023/05/30 04:18:47;;;;;;;9.60;2.83;;;12.10;99.90;;;;;;5096662;28;20457;-67
2023/05/30 04:21:14;;;;;;;9.87;2.80;;;12.10;99.90;;;;;;5096489;28;20518;-68
2023/05/30 04:23:41;;;;;;;4.50;2.50;;;12.10;99.90;;;;;;5096289;28;20454;-68
2023/05/30 04:26:08;;;;;;;6.00;2.50;;;12.10;99.90;;;;;;5096679;28;20457;-68
2023/05/30 04:28:38;;;;;;;3.63;2.03;;;12.10;99.90;;;;;;5096525;28;20476;-67
2023/05/30 04:31:05;;;;;;;6.40;2.60;;;12.20;99.90;;;;;;5096175;28;20522;-68
2023/05/30 04:33:35;;;;;;;6.57;2.50;;;12.20;99.90;;;;;;5096447;28;20453;-67
2023/05/30 04:36:04;;;;;;;5.20;2.87;;;12.20;99.90;;;;;;5096024;28;20453;-68
2023/05/30 04:38:32;;;;;;;6.97;3.80;;;12.20;99.90;;;;;;5096366;28;20952;-68
2023/05/30 04:41:01;;;;;;;11.33;2.90;;;12.20;99.90;;;;;;5096214;28;20449;-68
2023/05/30 04:43:29;;;;;;;5.23;2.50;;;12.20;99.90;;;;;;5096257;28;20492;-68
2023/05/30 04:46:00;;;;;;;4.80;2.97;;;12.30;99.90;;;;;;5096333;28;20778;-68
2023/05/30 04:48:27;;;;;;;8.60;2.80;;;12.40;99.90;;;;;;5096166;28;20465;-68
2023/05/30 04:50:56;;;;;;;3.93;2.33;;;12.40;99.90;;;;;;5095939;28;20937;-68
2023/05/30 04:53:23;;;;;;;8.10;3.03;;;12.40;99.90;;;;;;5095878;28;20453;-68
2023/05/30 04:55:50;;;;;;;4.33;2.30;;;12.50;99.90;;;;;;5095580;28;20453;-68
2023/05/30 04:58:18;;;;;;;5.10;2.53;;;12.60;99.90;;;;;;5095658;28;20453;-68
2023/05/30 05:00:44;;;;;;;8.73;2.80;;;12.60;99.90;;;;;;5095619;28;20457;-68
2023/05/30 05:03:12;;;;;;;5.37;2.43;;;12.70;99.90;;;;;;5095827;28;20561;-68
2023/05/30 05:05:38;;;;;;;8.87;3.17;;;12.70;99.90;;;;;;5095595;28;20457;-68
2023/05/30 05:08:07;;;;;;;3.63;2.50;;;12.80;99.90;;;;;;5095554;28;20559;-68
2023/05/30 05:10:33;;;;;;;4.40;2.20;;;12.80;99.90;;;;;;5095376;28;20493;-68
2023/05/30 05:13:00;;;;;;;6.00;2.70;;;12.90;99.90;;;;;;5094362;28;20922;-67
2023/05/30 05:15:27;;;;;;;4.73;2.90;;;13.00;99.90;;;;;;5095713;28;20463;-68
2023/05/30 05:17:54;;;;;;;7.57;2.80;;;13.00;99.90;;;;;;5096139;28;20488;-67
2023/05/30 05:20:21;;;;;;;10.40;3.50;;;13.00;99.90;;;;;;5095808;28;20463;-67
2023/05/30 05:22:48;;;;;;;6.77;2.73;;;13.00;99.90;;;;;;5095469;28;20458;-67
2023/05/30 05:25:16;;;;;;;6.77;3.53;;;13.00;99.90;;;;;;5095417;28;20552;-67
2023/05/30 05:27:43;;;;;;;5.73;2.50;;;13.10;99.90;;;;;;5094926;28;20457;-67
2023/05/30 05:30:10;;;;;;;4.80;2.87;;;13.20;99.90;;;;;;5095527;28;20463;-67
2023/05/30 05:32:38;;;;;;;8.30;2.80;;;13.20;99.90;;;;;;5095524;28;20488;-67
2023/05/30 05:35:06;;;;;;;7.90;3.10;;;13.20;99.90;;;;;;5095299;28;20457;-67
2023/05/30 05:37:33;;;;;;;28.77;6.80;;;13.30;99.90;;;;;;5095141;28;20833;-67
2023/05/30 05:40:01;;;;;;;7.00;3.30;;;13.30;99.90;;;;;;5095281;28;20449;-67
2023/05/30 05:42:29;;;;;;;4.37;2.13;;;13.40;99.90;;;;;;5094819;28;20463;-67
2023/05/30 05:44:56;;;;;;;6.90;2.37;;;13.40;99.90;;;;;;5094890;28;20468;-67
2023/05/30 05:47:24;;;;;;;12.27;2.50;;;13.50;99.90;;;;;;5094789;28;20457;-67
2023/05/30 05:49:51;;;;;;;3.80;1.97;;;13.60;99.90;;;;;;5095199;28;20457;-67
2023/05/30 05:52:18;;;;;;;6.30;2.60;;;13.60;99.90;;;;;;5094756;28;20473;-67
2023/05/30 05:54:45;;;;;;;3.20;2.50;;;13.70;99.90;;;;;;5094465;28;20453;-67
2023/05/30 05:57:12;;;;;;;5.93;2.83;;;13.70;99.90;;;;;;5094952;28;20453;-67
2023/05/30 05:59:40;;;;;;;7.73;2.43;;;13.70;99.90;;;;;;5094527;28;20463;-67
2023/05/30 06:02:07;;;;;;;5.67;2.40;;;13.80;99.90;;;;;;5094491;28;20449;-67
2023/05/30 06:04:34;;;;;;;8.50;2.50;;;13.80;99.90;;;;;;5094297;28;20918;-67
2023/05/30 06:07:01;;;;;;;7.00;2.40;;;13.90;99.90;;;;;;5094915;28;20484;-67
2023/05/30 06:09:31;;;;;;;7.50;3.07;;;14.00;99.90;;;;;;5094332;28;20467;-67
2023/05/30 06:11:58;;;;;;;7.37;2.83;;;14.00;99.90;;;;;;5094207;28;20809;-67
2023/05/30 06:14:25;;;;;;;4.63;2.50;;;14.10;99.90;;;;;;5094132;28;20449;-67
2023/05/30 06:16:53;;;;;;;5.63;2.60;;;14.20;99.90;;;;;;5094192;28;20453;-67
2023/05/30 06:19:20;;;;;;;7.53;2.50;;;14.20;99.90;;;;;;5094350;28;20847;-67
2023/05/30 06:21:47;;;;;;;5.57;2.20;;;14.30;99.90;;;;;;5093963;28;20944;-67
2023/05/30 06:24:14;;;;;;;3.57;2.23;;;14.40;99.90;;;;;;5093523;28;20453;-67
2023/05/30 06:26:41;;;;;;;4.20;2.20;;;14.50;99.90;;;;;;5094238;28;20459;-67
2023/05/30 06:29:07;;;;;;;5.50;2.17;;;14.60;99.90;;;;;;5093991;28;20467;-67
2023/05/30 06:31:34;;;;;;;5.80;2.13;;;14.70;99.90;;;;;;5094294;28;20491;-67
2023/05/30 06:34:03;;;;;;;4.37;2.90;;;14.80;99.90;;;;;;5094277;28;20540;-67
2023/05/30 06:36:29;;;;;;;6.00;2.40;;;14.90;1.00;;;;;;5093627;28;20957;-67
2023/05/30 06:38:56;;;;;;;3.20;2.37;;;15.00;1.00;;;;;;5093981;28;20809;-67
2023/05/30 06:41:23;;;;;;;5.53;2.40;;;15.10;1.00;;;;;;5093782;28;20460;-67
2023/05/30 06:43:50;;;;;;;3.00;1.97;;;15.10;1.00;;;;;;5093743;28;20453;-67
2023/05/30 06:46:17;;;;;;;5.67;2.30;;;15.30;1.00;;;;;;5093590;28;20457;-67
2023/05/30 06:48:44;;;;;;;4.43;2.77;;;15.40;1.00;;;;;;5093603;28;20898;-67
2023/05/30 06:51:12;;;;;;;7.90;2.47;;;15.40;1.00;;;;;;5093780;28;20914;-68
2023/05/30 06:53:39;;;;;;;10.43;2.70;;;15.40;1.00;;;;;;5094063;28;20461;-67
2023/05/30 06:56:07;;;;;;;5.00;2.30;;;15.50;1.00;;;;;;5094203;28;20939;-67
2023/05/30 06:58:33;;;;;;;4.43;2.00;;;15.50;1.00;;;;;;5094027;28;21010;-67
2023/05/30 07:01:00;;;;;;;12.30;3.23;;;15.60;1.00;;;;;;5093820;28;20463;-67
2023/05/30 07:03:27;;;;;;;8.10;3.80;;;15.70;1.00;;;;;;5094031;28;20449;-67
2023/05/30 07:05:54;;;;;;;6.40;2.60;;;15.80;1.00;;;;;;5093491;28;20457;-67
2023/05/30 07:08:22;;;;;;;7.80;2.37;;;15.80;1.00;;;;;;5094433;28;20457;-67
2023/05/30 07:10:50;;;;;;;7.80;2.30;;;15.90;1.00;;;;;;5094176;28;20767;-68
2023/05/30 07:13:16;;;;;;;5.17;2.10;;;15.90;1.00;;;;;;5093997;28;20580;-67
2023/05/30 07:15:43;;;;;;;7.90;2.23;;;16.00;1.00;;;;;;5093615;28;20454;-67
2023/05/30 07:18:10;;;;;;;3.00;1.73;;;16.00;1.00;;;;;;5093401;28;20454;-68
2023/05/30 07:20:37;;;;;;;5.80;2.47;;;16.10;1.00;;;;;;5093657;28;20460;-67
2023/05/30 07:23:04;;;;;;;6.70;2.20;;;16.20;1.00;;;;;;5094170;28;20460;-67
2023/05/30 07:25:32;;;;;;;5.87;1.93;;;16.20;1.00;;;;;;5093915;28;20453;-67
2023/05/30 07:27:59;;;;;;;7.43;2.50;;;16.30;1.00;;;;;;5093900;28;20463;-67
2023/05/30 07:30:26;;;;;;;5.10;2.90;;;16.30;1.00;;;;;;5093534;28;20457;-67
2023/05/30 07:32:53;;;;;;;6.00;2.10;;;16.30;1.00;;;;;;5093407;28;20943;-67
2023/05/30 07:35:20;;;;;;;2.80;1.77;;;16.40;1.00;;;;;;5094776;28;20452;-67
2023/05/30 07:37:47;;;;;;;3.20;1.60;;;16.40;1.00;;;;;;5097811;28;20476;-67
2023/05/30 07:40:17;;;;;;;4.63;2.10;;;16.40;1.00;;;;;;5097625;28;20608;-67
2023/05/30 07:42:46;;;;;;;7.23;1.90;;;16.50;1.00;;;;;;5097974;28;20496;-67
2023/05/30 07:45:14;;;;;;;6.57;2.00;;;16.60;1.00;;;;;;5097457;28;20463;-67
2023/05/30 07:47:40;;;;;;;6.13;2.10;;;16.60;1.00;;;;;;5097074;28;20459;-67
2023/05/30 07:50:09;;;;;;;5.77;2.03;;;16.70;1.00;;;;;;5097016;28;20461;-67
2023/05/30 07:52:36;;;;;;;4.17;1.73;;;16.80;1.00;;;;;;5097084;28;20473;-68
2023/05/30 07:55:03;;;;;;;4.40;2.00;;;16.80;1.00;;;;;;5096888;28;20948;-68
2023/05/30 07:57:30;;;;;;;4.57;2.00;;;16.90;1.00;;;;;;5097533;28;20540;-67
2023/05/30 07:59:59;;;;;;;4.00;1.90;;;16.90;1.00;;;;;;5097216;28;20484;-68
2023/05/30 08:02:26;;;;;;;6.87;1.83;;;17.00;1.00;;;;;;5096891;28;20919;-68
2023/05/30 08:04:53;;;;;;;3.97;2.10;;;17.10;1.00;;;;;;5097104;28;20456;-68
2023/05/30 08:07:20;;;;;;;5.73;2.37;;;17.10;1.00;;;;;;5096976;28;20480;-68
2023/05/30 08:09:47;;;;;;;3.77;1.70;;;17.10;1.00;;;;;;5096713;28;20458;-68
2023/05/30 08:12:18;;;;;;;4.57;1.97;;;17.20;1.00;;;;;;5097143;28;20477;-68
2023/05/30 08:14:45;;;;;;;3.27;1.83;;;17.20;1.00;;;;;;5096566;28;20484;-68
2023/05/30 08:17:16;;;;;;;5.53;2.63;;;17.40;1.00;;;;;;5096577;28;20468;-68
2023/05/30 08:19:43;;;;;;;4.00;1.80;;;17.30;1.00;;;;;;5096684;28;20442;-68
2023/05/30 08:22:11;;;;;;;5.70;2.27;;;17.40;1.00;;;;;;5096508;28;20958;-67
2023/05/30 08:24:38;;;;;;;5.70;2.07;;;17.40;1.00;;;;;;5096503;28;20453;-69
2023/05/30 08:27:06;;;;;;;4.90;2.60;;;17.30;1.00;;;;;;5097029;28;20853;-69
2023/05/30 08:29:34;;;;;;;7.73;1.90;;;17.30;1.00;;;;;;5096761;28;20493;-68
2023/05/30 08:32:00;;;;;;;4.60;2.07;;;17.30;1.00;;;;;;5096654;28;20495;-69
2023/05/30 08:34:29;;;;;;;3.13;1.77;;;17.40;1.00;;;;;;5096629;28;20873;-69
2023/05/30 08:36:56;;;;;;;5.60;1.63;;;17.50;1.00;;;;;;5096257;28;21040;-69
2023/05/30 08:39:23;;;;;;;5.93;1.43;;;17.60;1.00;;;;;;5096732;28;20469;-68
2023/05/30 08:41:50;;;;;;;3.37;1.97;;;17.70;1.00;;;;;;5096263;28;20457;-68
2023/05/30 08:44:17;;;;;;;5.97;2.00;;;17.70;1.00;;;;;;5096424;28;20459;-69
2023/05/30 08:46:44;;;;;;;6.03;2.20;;;17.80;1.00;;;;;;5096222;28;20807;-68
2023/05/30 08:49:13;;;;;;;10.37;2.40;;;17.80;1.00;;;;;;5095963;28;20457;-68
2023/05/30 08:51:43;;;;;;;6.37;2.47;;;17.80;1.00;;;;;;5096184;28;20529;-68
2023/05/30 08:54:15;;;;;;;5.93;2.23;;;17.80;1.00;;;;;;5096286;28;20552;-68
2023/05/30 08:56:48;;;;;;;5.77;2.20;;;17.80;1.00;;;;;;5096043;28;20542;-68
2023/05/30 08:59:18;;;;;;;5.57;1.97;;;17.80;1.00;;;;;;5096445;28;20452;-68
2023/05/30 09:01:46;;;;;;;5.40;1.93;;;17.80;1.00;;;;;;5095677;28;20465;-68
2023/05/30 09:04:15;;;;;;;9.60;2.63;;;17.90;1.00;;;;;;5095827;28;20463;-68
2023/05/30 09:06:46;;;;;;;7.90;2.10;;;17.90;1.00;;;;;;5095691;28;20882;-68
2023/05/30 09:09:13;;;;;;;2.60;2.00;;;18.00;1.00;;;;;;5096241;28;20464;-70
2023/05/30 09:11:40;;;;;;;6.00;2.00;;;18.10;1.00;;;;;;5095747;28;20452;-68
2023/05/30 09:14:08;;;;;;;5.00;1.97;;;18.10;1.00;;;;;;5095656;28;20481;-68
2023/05/30 09:16:35;;;;;;;4.33;1.90;;;18.20;1.00;;;;;;5095478;28;20457;-68
2023/05/30 09:19:02;;;;;;;3.73;2.37;;;18.30;1.00;;;;;;5095476;28;20473;-69
2023/05/30 09:21:30;;;;;;;5.40;2.20;;;18.30;1.00;;;;;;5095797;28;20514;-69
2023/05/30 09:24:03;;;;;;;8.00;2.33;;;18.30;1.00;;;;;;5095630;28;20777;-68
2023/05/30 09:26:29;;;;;;;5.00;2.00;;;18.30;1.00;;;;;;5095684;28;20442;-68
2023/05/30 09:28:56;;;;;;;4.90;2.37;;;18.40;1.00;;;;;;5095244;28;20770;-68
2023/05/30 09:31:23;;;;;;;6.40;2.00;;;18.40;1.00;;;;;;5095046;28;20496;-69
2023/05/30 09:33:51;;;;;;;4.33;2.37;;;18.50;1.00;;;;;;5094531;28;20976;-69
2023/05/30 09:36:19;;;;;;;6.40;2.63;;;18.50;1.00;;;;;;5094752;28;20884;-69
2023/05/30 09:38:54;;;;;;;7.00;2.23;;;18.50;1.00;;;;;;5095205;28;20578;-69
2023/05/30 09:41:22;;;;;;;4.07;1.80;;;18.50;1.00;;;;;;5095241;28;20494;-69
2023/05/30 09:43:53;;;;;;;4.63;2.30;;;18.50;1.00;;;;;;5094712;28;20449;-68
2023/05/30 09:46:21;;;;;;;6.40;2.73;;;18.60;1.00;;;;;;5095653;28;20525;-68
2023/05/30 09:48:49;;;;;;;4.93;2.13;;;18.60;1.00;;;;;;5095244;28;20442;-68
2023/05/30 09:51:17;;;;;;;3.50;2.10;;;18.60;1.00;;;;;;5094870;28;20979;-69
2023/05/30 09:54:00;;;;;;;4.00;2.00;;;18.70;1.00;;;;;;5094923;28;20487;-68
2023/05/30 09:56:35;;;;;;;4.43;2.17;;;18.70;1.00;;;;;;5094880;28;20445;-69
2023/05/30 09:59:06;;;;;;;5.00;2.20;;;18.70;1.00;;;;;;5094503;28;20819;-69
2023/05/30 10:01:40;;;;;;;3.40;2.07;;;18.80;1.00;;;;;;5095043;28;20506;-68
2023/05/30 10:04:14;;;;;;;3.87;2.23;;;18.90;1.00;;;;;;5094530;28;20491;-69
2023/05/30 10:06:42;;;;;;;3.03;1.80;;;18.90;1.00;;;;;;5094376;28;20597;-69
2023/05/30 10:09:11;;;;;;;3.07;2.00;;;19.00;1.00;;;;;;5094496;28;20457;-68
2023/05/30 10:11:41;;;;;;;5.67;1.97;;;19.10;1.00;;;;;;5094405;28;20866;-69
2023/05/30 10:14:08;;;;;;;3.77;1.90;;;19.10;1.00;;;;;;5094743;28;20813;-69
2023/05/30 10:16:41;;;;;;;5.23;2.77;;;19.10;1.00;;;;;;5093998;28;20596;-68
2023/05/30 10:19:14;;;;;;;6.30;2.07;;;19.20;1.00;;;;;;5094586;28;20722;-68
2023/05/30 10:21:41;;;;;;;4.20;1.80;;;19.20;1.00;;;;;;5094454;28;20441;-68
2023/05/30 10:24:14;;;;;;;9.60;2.53;;;19.20;1.00;;;;;;5094499;28;20450;-69
2023/05/30 10:26:48;;;;;;;5.97;1.80;;;19.30;1.00;;;;;;5094486;28;20452;-69
2023/05/30 10:29:17;;;;;;;6.10;2.40;;;19.40;1.00;;;;;;5094445;28;20442;-69
2023/05/30 10:31:44;;;;;;;4.03;1.70;;;19.40;1.00;;;;;;5094268;28;20778;-69
2023/05/30 10:34:14;;;;;;;5.50;1.93;;;19.40;1.00;;;;;;5094485;28;20798;-69
2023/05/30 10:36:42;;;;;;;3.60;2.20;;;19.50;1.00;;;;;;5094558;28;20493;-69
2023/05/30 10:39:18;;;;;;;8.03;6.37;;;19.50;1.00;;;;;;5094370;28;20543;-69
2023/05/30 10:41:51;;;;;;;4.30;2.47;;;19.60;1.00;;;;;;5094064;28;20870;-69
2023/05/30 10:44:35;;;;;;;4.50;1.80;;;19.70;1.00;;;;;;5093867;28;20469;-69
2023/05/30 10:47:17;;;;;;;4.03;1.70;;;19.70;1.00;;;;;;5094202;28;20448;-69
2023/05/30 10:49:47;;;;;;;3.73;1.73;;;19.80;1.00;;;;;;5094048;28;20460;-68
2023/05/30 10:52:17;;;;;;;5.13;2.30;;;19.80;1.00;;;;;;5093681;28;20449;-69
2023/05/30 10:54:46;;;;;;;4.20;2.20;;;19.80;1.00;;;;;;5094002;28;20498;-69
2023/05/30 10:57:27;;;;;;;4.20;2.43;;;19.90;1.00;;;;;;5093731;28;20518;-69
2023/05/30 10:59:57;;;;;;;3.47;1.90;;;20.00;1.00;;;;;;5094170;28;20499;-68
2023/05/30 11:02:35;;;;;;;4.00;2.10;;;20.00;1.00;;;;;;5094281;28;20455;-69
2023/05/30 11:05:07;;;;;;;4.97;2.20;;;20.10;1.00;;;;;;5093313;28;20540;-68
2023/05/30 11:07:36;;;;;;;3.93;2.10;;;20.20;1.00;;;;;;5093800;28;20781;-68
2023/05/30 11:10:05;;;;;;;3.57;2.10;;;20.30;1.00;;;;;;5094076;28;20464;-68
2023/05/30 11:12:33;;;;;;;4.37;2.07;;;20.40;1.00;;;;;;5097898;28;20464;-68
2023/05/30 11:15:01;;;;;;;5.07;2.67;;;20.50;1.00;;;;;;5097836;28;20499;-69
2023/05/30 11:17:34;;;;;;;3.40;1.73;;;20.80;1.00;;;;;;5097664;28;20837;-68
2023/05/30 11:20:08;;;;;;;6.03;1.97;;;21.40;1.00;;;;;;5098157;28;20457;-67
2023/05/30 11:22:37;;;;;;;3.60;2.10;;;22.10;1.00;;;;;;5098223;28;20861;-68
2023/05/30 11:25:23;;;;;;;5.20;2.20;;;23.10;1.00;;;;;;5097869;28;20453;-68
2023/05/30 11:28:15;;;;;;;5.83;1.70;;;24.30;1.00;;;;;;5097476;28;20456;-68
2023/05/30 11:30:46;;;;;;;5.93;2.03;;;25.40;1.00;;;;;;5097679;28;20510;-68
2023/05/30 11:33:13;;;;;;;6.53;1.83;;;26.30;1.00;;;;;;5097179;28;20477;-68
2023/05/30 11:35:44;;;;;;;2.90;2.33;;;27.10;1.00;;;;;;5097430;28;20453;-68
2023/05/30 11:38:11;;;;;;;6.23;2.10;;;27.40;1.00;;;;;;5096868;28;20477;-68
2023/05/30 11:40:42;;;;;;;6.83;2.10;;;28.00;1.00;;;;;;5096974;28;20481;-68
2023/05/30 11:43:11;;;;;;;3.60;2.00;;;28.70;1.00;;;;;;5097067;28;20448;-68
2023/05/30 11:45:38;;;;;;;2.80;1.57;;;29.10;1.00;;;;;;5097014;28;20457;-68
2023/05/30 11:48:06;;;;;;;3.70;1.63;;;29.60;1.00;;;;;;5097388;28;20547;-68
2023/05/30 11:50:38;;;;;;;2.60;2.10;;;29.90;1.00;;;;;;5097259;28;20463;-68
2023/05/30 11:53:11;;;;;;;4.33;1.70;;;30.30;1.00;;;;;;5097142;28;20472;-69
2023/05/30 11:55:38;;;;;;;6.80;1.93;;;30.60;1.00;;;;;;5096785;28;20464;-68
2023/05/30 11:58:04;;;;;;;2.77;1.87;;;31.00;1.00;;;;;;5096945;28;20453;-68
2023/05/30 12:00:33;;;;;;;5.80;1.93;;;31.20;1.00;;;;;;5096806;28;20453;-68
2023/05/30 12:03:00;;;;;;;7.97;2.00;;;31.40;1.00;;;;;;5096702;28;20463;-68
2023/05/30 12:05:28;;;;;;;5.43;1.73;;;31.50;1.00;;;;;;5096447;28;20913;-68
2023/05/30 12:07:55;;;;;;;4.60;1.90;;;31.60;1.00;;;;;;5096916;28;20548;-68
2023/05/30 12:10:29;;;;;;;5.53;2.20;;;31.70;1.00;;;;;;5096478;28;20457;-68
2023/05/30 12:12:55;;;;;;;3.20;1.63;;;31.80;1.00;;;;;;5096750;28;20875;-69
2023/05/30 12:15:22;;;;;;;3.17;1.90;;;31.80;1.00;;;;;;5096604;28;20463;-67
2023/05/30 12:17:52;;;;;;;4.00;1.60;;;32.00;1.00;;;;;;5097053;28;20914;-67
2023/05/30 12:20:21;;;;;;;2.87;2.03;;;32.10;1.00;;;;;;5096791;28;20789;-67
2023/05/30 12:22:49;;;;;;;3.13;1.67;;;32.40;1.00;;;;;;5096375;28;20467;-69
2023/05/30 12:25:15;;;;;;;5.10;2.20;;;32.60;1.00;;;;;;5096904;28;20773;-68
2023/05/30 12:27:43;;;;;;;6.97;2.03;;;32.70;1.00;;;;;;5096755;28;20453;-68
2023/05/30 12:30:15;;;;;;;2.53;1.70;;;32.70;1.00;;;;;;5096577;28;20902;-68
2023/05/30 12:32:42;;;;;;;4.70;2.17;;;32.60;1.00;;;;;;5096573;28;20907;-68
2023/05/30 12:35:11;;;;;;;2.50;1.83;;;32.30;1.00;;;;;;5096488;28;20818;-68
2023/05/30 12:37:38;;;;;;;2.53;1.83;;;32.20;1.00;;;;;;5096106;28;20564;-68
2023/05/30 12:40:07;;;;;;;2.80;1.93;;;32.20;1.00;;;;;;5095974;28;20548;-68
2023/05/30 12:42:36;;;;;;;4.60;1.90;;;32.00;1.00;;;;;;5096264;28;20490;-68
2023/05/30 12:45:04;;;;;;;3.83;1.43;;;31.60;1.00;;;;;;5096181;28;20503;-68
2023/05/30 12:47:31;;;;;;;4.93;1.70;;;31.30;1.00;;;;;;5096348;28;20544;-68
2023/05/30 12:49:59;;;;;;;11.53;2.00;;;31.30;1.00;;;;;;5096305;28;20453;-68
2023/05/30 12:52:28;;;;;;;5.17;1.90;;;31.60;1.00;;;;;;5096061;28;20556;-68
2023/05/30 12:54:56;;;;;;;2.63;1.73;;;31.80;1.00;;;;;;5095556;28;21007;-68
2023/05/30 12:57:25;;;;;;;7.10;2.00;;;31.90;1.00;;;;;;5095993;28;20463;-68
2023/05/30 12:59:53;;;;;;;4.23;1.90;;;32.00;1.00;;;;;;5095745;28;20548;-68